createdAt,value
2018-03-16T00:02:08.330Z,15.50
2018-03-16T00:04:34.703Z,17.03
2018-03-16T00:07:01.085Z,16.23
2018-03-16T00:09:27.538Z,16.20
2018-03-16T00:11:53.899Z,16.30
2018-03-16T00:14:21.003Z,17.30
2018-03-16T00:16:47.431Z,16.67
2018-03-16T00:19:13.829Z,17.80
2018-03-16T00:21:40.230Z,20.10
2018-03-16T00:24:07.375Z,16.37
2018-03-16T00:26:34.499Z,18.00
2018-03-16T00:29:00.908Z,18.73
2018-03-16T00:31:27.448Z,18.47
2018-03-16T00:33:53.822Z,19.10
2018-03-16T00:36:20.204Z,22.50
2018-03-16T00:38:46.734Z,20.03
2018-03-16T00:41:13.140Z,19.37
2018-03-16T00:43:39.523Z,20.97
2018-03-16T00:46:06.656Z,19.27
2018-03-16T00:48:33.039Z,21.80
2018-03-16T00:50:59.375Z,20.77
2018-03-16T00:53:25.729Z,20.03
2018-03-16T00:55:52.100Z,20.40
2018-03-16T00:58:18.512Z,20.60
2018-03-16T01:00:45.628Z,21.13
2018-03-16T01:03:12.775Z,20.13
2018-03-16T01:05:39.896Z,23.50
2018-03-16T01:08:07.022Z,19.17
2018-03-16T01:10:33.397Z,22.30
2018-03-16T01:13:00.505Z,21.10
2018-03-16T01:15:26.913Z,20.40
2018-03-16T01:17:56.223Z,21.80
2018-03-16T01:20:22.633Z,20.30
2018-03-16T01:22:49.009Z,20.43
2018-03-16T01:25:15.439Z,19.57
2018-03-16T01:27:41.840Z,20.90
2018-03-16T01:30:08.222Z,18.80
2018-03-16T01:32:35.346Z,19.70
2018-03-16T01:35:01.731Z,19.50
2018-03-16T01:37:28.090Z,20.20
2018-03-16T01:39:54.476Z,18.70
2018-03-16T01:42:21.586Z,20.60
2018-03-16T01:44:47.968Z,20.17
2018-03-16T01:47:15.091Z,20.30
2018-03-16T01:49:41.522Z,18.53
2018-03-16T01:52:07.887Z,20.73
2018-03-16T01:54:35.132Z,19.97
2018-03-16T01:57:01.649Z,21.13
2018-03-16T01:59:28.038Z,19.17
2018-03-16T02:01:54.523Z,19.00
2018-03-16T02:04:20.932Z,19.03
2018-03-16T02:06:47.320Z,20.13
2018-03-16T02:09:13.689Z,20.53
2018-03-16T02:11:40.103Z,22.23
2018-03-16T02:14:06.522Z,19.87
2018-03-16T02:16:32.954Z,19.57
2018-03-16T02:18:59.398Z,19.80
2018-03-16T02:21:25.866Z,18.73
2018-03-16T02:23:52.241Z,19.93
2018-03-16T02:26:18.596Z,19.80
2018-03-16T02:28:44.981Z,20.20
2018-03-16T02:31:12.092Z,19.13
2018-03-16T02:33:38.468Z,20.20
2018-03-16T02:36:04.873Z,18.63
2018-03-16T02:38:31.252Z,18.43
2018-03-16T02:40:57.614Z,17.93
2018-03-16T02:43:23.999Z,17.13
2018-03-16T02:45:50.393Z,18.00
2018-03-16T02:48:16.938Z,18.50
2018-03-16T02:50:44.062Z,19.67
2018-03-16T02:53:10.447Z,18.23
2018-03-16T02:55:37.664Z,19.17
2018-03-16T02:58:04.040Z,18.73
2018-03-16T03:00:30.439Z,18.60
2018-03-16T03:02:56.855Z,17.70
2018-03-16T03:05:24.036Z,18.73
2018-03-16T03:07:51.141Z,18.80
2018-03-16T03:10:17.671Z,17.53
2018-03-16T03:12:44.056Z,17.67
2018-03-16T03:15:10.419Z,16.43
2018-03-16T03:17:36.773Z,16.30
2018-03-16T03:20:03.327Z,18.60
2018-03-16T03:22:29.698Z,17.63
2018-03-16T03:24:56.069Z,16.97
2018-03-16T03:27:24.004Z,17.17
2018-03-16T03:29:50.405Z,16.10
2018-03-16T03:32:16.833Z,17.80
2018-03-16T03:34:43.957Z,16.90
2018-03-16T03:37:10.345Z,17.33
2018-03-16T03:39:36.729Z,14.57
2018-03-16T03:42:03.119Z,17.10
2018-03-16T03:44:29.503Z,17.10
2018-03-16T03:46:56.702Z,16.40
2018-03-16T03:49:23.134Z,16.20
2018-03-16T03:51:49.517Z,16.57
2018-03-16T03:54:15.871Z,15.73
2018-03-16T03:56:42.280Z,16.43
2018-03-16T03:59:08.660Z,16.43
2018-03-16T04:01:35.063Z,15.00
2018-03-16T04:04:02.186Z,14.80
2018-03-16T04:06:28.559Z,16.97
2018-03-16T04:08:54.932Z,15.17
2018-03-16T04:11:21.345Z,15.80
2018-03-16T04:13:47.720Z,16.20
2018-03-16T04:16:14.890Z,18.70
2018-03-16T04:18:42.010Z,15.37
2018-03-16T04:21:08.391Z,17.03
2018-03-16T04:23:34.800Z,14.50
2018-03-16T04:26:01.921Z,14.73
2018-03-16T04:28:28.302Z,14.27
2018-03-16T04:30:54.725Z,16.90
2018-03-16T04:33:21.825Z,15.47
2018-03-16T04:35:48.176Z,15.20
2018-03-16T04:38:15.321Z,15.23
2018-03-16T04:40:41.715Z,14.03
2018-03-16T04:43:08.095Z,13.83
2018-03-16T04:45:34.444Z,15.20
2018-03-16T04:48:00.825Z,12.90
2018-03-16T04:50:27.204Z,12.50
2018-03-16T04:52:54.409Z,13.60
2018-03-16T04:55:20.766Z,14.57
2018-03-16T04:57:47.138Z,12.70
2018-03-16T05:00:13.822Z,11.80
2018-03-16T05:02:40.982Z,14.00
2018-03-16T05:05:07.340Z,12.67
2018-03-16T05:07:34.459Z,12.60
2018-03-16T05:10:00.814Z,11.63
2018-03-16T05:12:27.934Z,12.07
2018-03-16T05:14:54.309Z,13.37
2018-03-16T05:17:20.675Z,12.37
2018-03-16T05:19:47.062Z,13.00
2018-03-16T05:22:14.204Z,12.50
2018-03-16T05:24:41.332Z,11.80
2018-03-16T05:27:07.785Z,11.97
2018-03-16T05:29:34.910Z,11.93
2018-03-16T05:32:01.284Z,11.37
2018-03-16T05:34:27.774Z,11.13
2018-03-16T05:36:54.136Z,11.13
2018-03-16T05:39:20.743Z,12.50
2018-03-16T05:41:47.173Z,9.70
2018-03-16T05:44:13.553Z,11.37
2018-03-16T05:46:39.939Z,11.30
2018-03-16T05:49:06.323Z,10.50
2018-03-16T05:51:32.709Z,11.10
2018-03-16T05:53:59.164Z,10.00
2018-03-16T05:56:26.267Z,10.10
2018-03-16T05:58:52.662Z,10.10
2018-03-16T06:01:19.076Z,11.13
2018-03-16T06:03:45.461Z,11.27
2018-03-16T06:06:11.857Z,12.33
2018-03-16T06:08:38.237Z,10.43
2018-03-16T06:11:04.614Z,11.00
2018-03-16T06:13:31.704Z,9.67
2018-03-16T06:15:58.080Z,9.37
2018-03-16T06:18:25.282Z,10.00
2018-03-16T06:20:51.694Z,9.83
2018-03-16T06:23:18.066Z,9.20
2018-03-16T06:25:44.435Z,8.57
2018-03-16T06:28:11.544Z,10.00
2018-03-16T06:30:37.935Z,8.50
2018-03-16T06:33:04.276Z,8.13
2018-03-16T06:35:30.743Z,8.80
2018-03-16T06:37:57.101Z,10.30
2018-03-16T06:40:24.222Z,8.57
2018-03-16T06:42:50.625Z,10.23
2018-03-16T06:45:17.049Z,8.40
2018-03-16T06:47:43.401Z,9.73
2018-03-16T06:50:09.807Z,8.77
2018-03-16T06:52:36.172Z,9.47
2018-03-16T06:55:02.598Z,7.63
2018-03-16T06:57:28.950Z,8.80
2018-03-16T06:59:55.331Z,9.60
2018-03-16T07:02:21.706Z,9.53
2018-03-16T07:04:48.053Z,8.60
2018-03-16T07:07:14.421Z,8.77
2018-03-16T07:09:41.521Z,10.67
2018-03-16T07:12:07.957Z,8.10
2018-03-16T07:14:34.296Z,14.03
2018-03-16T07:17:00.750Z,8.87
2018-03-16T07:19:27.849Z,7.90
2018-03-16T07:21:54.225Z,9.70
2018-03-16T07:24:21.309Z,9.70
2018-03-16T07:26:47.664Z,8.63
2018-03-16T07:29:14.024Z,9.53
2018-03-16T07:31:41.214Z,10.73
2018-03-16T07:34:07.576Z,8.47
2018-03-16T07:36:33.972Z,7.83
2018-03-16T07:39:00.372Z,10.90
2018-03-16T07:41:27.520Z,8.50
2018-03-16T07:43:54.649Z,8.83
2018-03-16T07:46:21.018Z,9.33
2018-03-16T07:48:47.394Z,8.60
2018-03-16T07:51:13.784Z,7.87
2018-03-16T07:53:40.153Z,8.20
2018-03-16T07:56:06.825Z,7.80
2018-03-16T07:58:33.951Z,9.07
2018-03-16T08:01:01.137Z,8.00
2018-03-16T08:03:27.528Z,7.67
2018-03-16T08:05:53.888Z,7.80
2018-03-16T08:08:20.262Z,8.13
2018-03-16T08:10:46.634Z,7.83
2018-03-16T08:13:13.124Z,8.83
2018-03-16T08:15:39.487Z,7.23
2018-03-16T08:18:05.894Z,7.07
2018-03-16T08:20:32.333Z,7.80
2018-03-16T08:22:58.682Z,7.53
2018-03-16T08:25:25.065Z,7.90
2018-03-16T08:27:52.194Z,7.40
2018-03-16T08:30:19.351Z,7.20
2018-03-16T08:32:45.697Z,7.30
2018-03-16T08:35:12.819Z,8.33
2018-03-16T08:37:39.925Z,8.33
2018-03-16T08:40:06.328Z,6.33
2018-03-16T08:42:33.529Z,8.70
2018-03-16T08:45:00.384Z,7.97
2018-03-16T08:47:26.763Z,6.53
2018-03-16T08:49:53.132Z,8.20
2018-03-16T08:52:19.485Z,7.70
2018-03-16T08:54:45.853Z,7.30
2018-03-16T08:57:12.240Z,7.47
2018-03-16T08:59:38.630Z,7.03
2018-03-16T09:02:05.047Z,7.30
2018-03-16T09:04:32.164Z,7.80
2018-03-16T09:06:58.535Z,7.03
2018-03-16T09:09:24.930Z,7.10
2018-03-16T09:11:51.416Z,9.93
2018-03-16T09:14:17.766Z,7.60
2018-03-16T09:16:44.930Z,6.77
2018-03-16T09:19:11.375Z,6.13
2018-03-16T09:21:37.745Z,6.80
2018-03-16T09:24:04.144Z,7.00
2018-03-16T09:26:30.628Z,7.17
2018-03-16T09:28:56.976Z,7.00
2018-03-16T09:31:23.387Z,7.03
2018-03-16T09:33:49.752Z,6.27
2018-03-16T09:36:16.145Z,7.07
2018-03-16T09:38:42.504Z,8.43
2018-03-16T09:41:08.868Z,6.20
2018-03-16T09:43:35.224Z,7.03
2018-03-16T09:46:02.349Z,6.30
2018-03-16T09:48:29.456Z,6.63
2018-03-16T09:50:55.835Z,7.67
2018-03-16T09:53:28.846Z,6.50
2018-03-16T09:55:55.267Z,6.47
2018-03-16T09:58:22.389Z,7.37
2018-03-16T10:00:48.796Z,5.40
2018-03-16T10:03:15.209Z,5.57
2018-03-16T10:05:42.320Z,6.70
2018-03-16T10:08:08.731Z,6.97
2018-03-16T10:10:35.895Z,6.20
2018-03-16T10:13:03.394Z,7.47
2018-03-16T10:15:29.814Z,6.27
2018-03-16T10:17:57.149Z,6.80
2018-03-16T10:20:24.286Z,9.03
2018-03-16T10:22:51.439Z,6.90
2018-03-16T10:25:18.550Z,6.37
2018-03-16T10:27:44.962Z,6.50
2018-03-16T10:30:11.370Z,6.43
2018-03-16T10:32:38.590Z,5.40
2018-03-16T10:35:04.997Z,8.13
2018-03-16T10:37:31.393Z,5.60
2018-03-16T10:39:57.755Z,7.47
2018-03-16T10:42:24.168Z,5.57
2018-03-16T10:44:50.566Z,4.37
2018-03-16T10:47:17.696Z,4.80
2018-03-16T10:49:44.047Z,6.40
2018-03-16T10:52:11.178Z,4.90
2018-03-16T10:54:38.321Z,4.90
2018-03-16T10:57:04.710Z,4.93
2018-03-16T10:59:31.104Z,5.80
2018-03-16T11:02:01.348Z,5.70
2018-03-16T11:04:28.700Z,7.60
2018-03-16T11:07:01.846Z,4.93
2018-03-16T11:09:28.484Z,5.40
2018-03-16T11:11:55.634Z,5.33
2018-03-16T11:14:22.012Z,4.57
2018-03-16T11:16:48.424Z,5.00
2018-03-16T11:19:15.575Z,6.17
2018-03-16T11:21:42.691Z,5.30
2018-03-16T11:24:09.076Z,5.90
2018-03-16T11:26:35.448Z,6.20
2018-03-16T11:29:01.892Z,6.30
2018-03-16T11:31:28.251Z,4.00
2018-03-16T11:33:55.418Z,5.17
2018-03-16T11:36:22.508Z,4.07
2018-03-16T11:38:48.872Z,4.17
2018-03-16T11:41:15.985Z,4.30
2018-03-16T11:43:42.393Z,4.20
2018-03-16T11:46:08.767Z,4.50
2018-03-16T11:48:35.227Z,4.20
2018-03-16T11:51:01.637Z,5.50
2018-03-16T11:53:27.996Z,4.67
2018-03-16T11:55:55.177Z,4.10
2018-03-16T11:58:21.801Z,4.53
2018-03-16T12:00:48.218Z,5.23
2018-03-16T12:03:15.320Z,3.70
2018-03-16T12:05:41.712Z,4.65
2018-03-16T12:08:08.100Z,3.67
2018-03-16T12:10:34.482Z,3.80
2018-03-16T12:13:00.856Z,5.73
2018-03-16T12:15:27.243Z,3.23
2018-03-16T12:17:53.627Z,3.80
2018-03-16T12:20:20.051Z,3.20
2018-03-16T12:22:46.452Z,5.50
2018-03-16T12:25:12.849Z,6.03
2018-03-16T12:27:39.961Z,6.47
2018-03-16T12:30:06.397Z,5.20
2018-03-16T12:32:32.782Z,2.97
2018-03-16T12:34:59.182Z,3.53
2018-03-16T12:37:26.618Z,3.40
2018-03-16T12:39:52.999Z,3.80
2018-03-16T12:42:19.391Z,3.30
2018-03-16T12:44:47.256Z,3.47
2018-03-16T12:47:13.690Z,2.90
2018-03-16T12:49:40.822Z,3.70
2018-03-16T12:52:07.210Z,4.73
2018-03-16T12:54:33.657Z,2.50
2018-03-16T12:57:00.098Z,4.00
2018-03-16T12:59:26.476Z,2.80
2018-03-16T13:01:52.847Z,3.03
2018-03-16T13:04:19.335Z,3.00
2018-03-16T13:06:46.467Z,3.13
2018-03-16T13:09:12.832Z,4.77
2018-03-16T13:11:39.991Z,4.93
2018-03-16T13:14:07.087Z,3.90
2018-03-16T13:16:33.519Z,3.87
2018-03-16T13:18:59.935Z,2.80
2018-03-16T13:21:27.083Z,2.87
2018-03-16T13:23:53.432Z,3.00
2018-03-16T13:26:19.845Z,4.10
2018-03-16T13:28:46.251Z,4.40
2018-03-16T13:31:13.420Z,3.40
2018-03-16T13:33:39.808Z,3.33
2018-03-16T13:36:06.307Z,4.00
2018-03-16T13:38:32.699Z,7.10
2018-03-16T13:40:59.076Z,3.60
2018-03-16T13:43:25.456Z,7.63
2018-03-16T13:45:52.581Z,3.43
2018-03-16T13:48:18.970Z,3.40
2018-03-16T13:50:45.343Z,4.60
2018-03-16T13:53:11.834Z,3.60
2018-03-16T13:55:38.214Z,3.67
2018-03-16T13:58:04.648Z,3.97
2018-03-16T14:00:31.025Z,3.20
2018-03-16T14:02:57.432Z,3.47
2018-03-16T14:05:24.570Z,4.37
2018-03-16T14:07:50.983Z,3.63
2018-03-16T14:10:17.382Z,4.00
2018-03-16T14:12:43.780Z,4.27
2018-03-16T14:15:10.903Z,4.00
2018-03-16T14:17:37.303Z,3.50
2018-03-16T14:20:03.742Z,3.20
2018-03-16T14:22:30.154Z,3.43
2018-03-16T14:24:56.567Z,3.63
2018-03-16T14:27:23.153Z,4.50
2018-03-16T14:29:49.651Z,3.93
2018-03-16T14:32:16.038Z,3.57
2018-03-16T14:34:42.443Z,3.03
2018-03-16T14:37:08.835Z,3.77
2018-03-16T14:39:35.204Z,4.17
2018-03-16T14:42:01.585Z,3.90
2018-03-16T14:44:28.003Z,2.80
2018-03-16T14:46:55.140Z,3.87
2018-03-16T14:49:21.514Z,5.10
2018-03-16T14:51:47.880Z,5.47
2018-03-16T14:54:15.045Z,3.03
2018-03-16T14:56:41.419Z,4.60
2018-03-16T14:59:08.717Z,4.07
2018-03-16T15:01:35.149Z,4.20
2018-03-16T15:04:01.596Z,3.17
2018-03-16T15:06:28.041Z,3.20
2018-03-16T15:08:54.408Z,3.20
2018-03-16T15:11:20.794Z,3.17
2018-03-16T15:13:47.201Z,3.80
2018-03-16T15:16:13.602Z,4.70
2018-03-16T15:18:39.984Z,2.90
2018-03-16T15:21:06.365Z,3.63
2018-03-16T15:23:33.469Z,4.57
2018-03-16T15:26:00.628Z,3.60
2018-03-16T15:28:26.972Z,6.17
2018-03-16T15:30:54.069Z,3.30
2018-03-16T15:33:21.174Z,3.20
2018-03-16T15:35:48.252Z,3.80
2018-03-16T15:38:14.630Z,5.07
2018-03-16T15:40:41.914Z,3.30
2018-03-16T15:43:08.264Z,2.90
2018-03-16T15:45:34.617Z,4.10
2018-03-16T15:48:01.009Z,5.07
2018-03-16T15:50:28.104Z,4.20
2018-03-16T15:52:54.445Z,2.90
2018-03-16T15:55:20.786Z,3.70
2018-03-16T15:57:47.118Z,2.50
2018-03-16T16:00:13.566Z,2.90
2018-03-16T16:02:40.631Z,2.70
2018-03-16T16:05:07.720Z,4.13
2018-03-16T16:07:34.803Z,2.50
2018-03-16T16:10:01.150Z,5.33
2018-03-16T16:12:28.258Z,3.33
2018-03-16T16:14:54.641Z,2.47
2018-03-16T16:17:21.729Z,3.27
2018-03-16T16:19:48.924Z,4.10
2018-03-16T16:22:16.040Z,2.83
2018-03-16T16:24:42.384Z,4.07
2018-03-16T16:27:08.854Z,2.43
2018-03-16T16:29:35.197Z,4.10
2018-03-16T16:32:01.530Z,2.00
2018-03-16T16:34:27.885Z,2.67
2018-03-16T16:36:54.255Z,4.63
2018-03-16T16:39:21.319Z,4.77
2018-03-16T16:41:48.435Z,2.67
2018-03-16T16:44:14.799Z,2.50
2018-03-16T16:46:42.012Z,2.67
2018-03-16T16:49:08.403Z,3.10
2018-03-16T16:51:35.737Z,2.80
2018-03-16T16:54:02.838Z,2.30
2018-03-16T16:56:29.211Z,6.90
2018-03-16T16:58:56.314Z,2.63
2018-03-16T17:01:22.697Z,4.00
2018-03-16T17:03:49.050Z,3.60
2018-03-16T17:06:15.397Z,4.93
2018-03-16T17:08:41.981Z,5.27
2018-03-16T17:11:08.685Z,3.93
2018-03-16T17:13:35.029Z,2.47
2018-03-16T17:16:02.148Z,3.93
2018-03-16T17:18:28.482Z,4.40
2018-03-16T17:20:54.814Z,3.00
2018-03-16T17:23:21.472Z,3.80
2018-03-16T17:25:47.814Z,3.70
2018-03-16T17:28:14.200Z,4.77
2018-03-16T17:30:40.530Z,5.83
2018-03-16T17:33:06.910Z,2.90
2018-03-16T17:35:33.982Z,2.97
2018-03-16T17:38:00.338Z,4.00
2018-03-16T17:40:26.893Z,3.20
2018-03-16T17:42:53.272Z,3.10
2018-03-16T17:45:20.357Z,2.90
2018-03-16T17:47:46.695Z,2.30
2018-03-16T17:50:13.044Z,4.20
2018-03-16T17:52:39.386Z,7.10
2018-03-16T17:55:05.760Z,5.10
2018-03-16T17:57:32.131Z,3.10
2018-03-16T17:59:59.994Z,3.13
2018-03-16T18:02:26.347Z,2.53
2018-03-16T18:04:52.680Z,5.40
2018-03-16T18:07:19.769Z,3.97
2018-03-16T18:09:46.103Z,3.30
2018-03-16T18:12:12.432Z,3.50
2018-03-16T18:14:38.787Z,3.73
2018-03-16T18:17:05.120Z,2.70
2018-03-16T18:19:31.470Z,4.97
2018-03-16T18:21:59.291Z,5.73
2018-03-16T18:24:25.690Z,4.50
2018-03-16T18:26:52.071Z,2.57
2018-03-16T18:29:18.776Z,3.87
2018-03-16T18:31:45.843Z,2.93
2018-03-16T18:34:12.216Z,3.20
2018-03-16T18:36:38.709Z,3.57
2018-03-16T18:39:05.096Z,4.13
2018-03-16T18:41:31.505Z,3.83
2018-03-16T18:43:57.864Z,5.17
2018-03-16T18:46:24.945Z,4.60
2018-03-16T18:48:51.327Z,2.67
2018-03-16T18:51:18.667Z,3.83
2018-03-16T18:53:45.046Z,5.63
2018-03-16T18:56:13.268Z,3.47
2018-03-16T18:58:39.613Z,3.07
2018-03-16T19:01:06.056Z,7.30
2018-03-16T19:03:33.207Z,3.63
2018-03-16T19:05:59.593Z,3.70
2018-03-16T19:08:26.997Z,3.80
2018-03-16T19:10:54.170Z,3.27
2018-03-16T19:13:20.561Z,3.30
2018-03-16T19:15:47.218Z,5.73
2018-03-16T19:18:13.605Z,3.30
2018-03-16T19:20:40.081Z,9.30
2018-03-16T19:23:06.591Z,4.23
2018-03-16T19:25:33.216Z,4.37
2018-03-16T19:27:59.583Z,5.90
2018-03-16T19:30:25.971Z,3.50
2018-03-16T19:32:52.320Z,5.03
2018-03-16T19:35:20.185Z,3.67
2018-03-16T19:37:46.565Z,4.97
2018-03-16T19:40:13.662Z,4.73
2018-03-16T19:42:40.013Z,4.00
2018-03-16T19:45:06.402Z,5.20
2018-03-16T19:47:32.728Z,5.27
2018-03-16T19:49:59.059Z,3.33
2018-03-16T19:52:25.387Z,4.13
2018-03-16T19:54:51.726Z,4.73
2018-03-16T19:57:18.135Z,5.10
2018-03-16T19:59:45.343Z,4.87
2018-03-16T20:02:11.686Z,4.33
2018-03-16T20:04:38.760Z,3.53
2018-03-16T20:07:05.916Z,13.73
2018-03-16T20:09:32.399Z,6.00
2018-03-16T20:11:59.542Z,3.40
2018-03-16T20:14:25.875Z,3.60
2018-03-16T20:16:52.290Z,4.27
2018-03-16T20:19:18.621Z,5.17
2018-03-16T20:21:44.954Z,4.20
2018-03-16T20:24:11.342Z,3.70
2018-03-16T20:26:38.471Z,5.10
2018-03-16T20:29:04.808Z,3.87
2018-03-16T20:31:31.215Z,3.13
2018-03-16T20:33:57.625Z,3.40
2018-03-16T20:36:23.992Z,3.50
2018-03-16T20:38:50.330Z,4.20
2018-03-16T20:41:16.650Z,7.23
2018-03-16T20:43:43.002Z,4.17
2018-03-16T20:46:09.354Z,3.50
2018-03-16T20:48:36.506Z,4.00
2018-03-16T20:51:03.699Z,3.63
2018-03-16T20:53:30.046Z,4.60
2018-03-16T20:55:56.380Z,4.90
2018-03-16T20:58:22.747Z,2.87
2018-03-16T21:00:49.863Z,6.13
2018-03-16T21:03:16.199Z,4.87
2018-03-16T21:05:42.650Z,5.10
2018-03-16T21:08:08.981Z,3.63
2018-03-16T21:10:36.058Z,3.43
2018-03-16T21:13:02.450Z,4.60
2018-03-16T21:15:28.790Z,4.40
2018-03-16T21:17:55.098Z,3.43
2018-03-16T21:20:23.010Z,5.20
2018-03-16T21:22:49.331Z,4.00
2018-03-16T21:25:15.702Z,5.73
2018-03-16T21:27:42.037Z,4.43
2018-03-16T21:30:08.414Z,4.20
2018-03-16T21:32:35.585Z,2.97
2018-03-16T21:35:01.977Z,3.37
2018-03-16T21:37:29.046Z,5.83
2018-03-16T21:39:56.130Z,3.70
2018-03-16T21:42:22.530Z,5.27
2018-03-16T21:44:49.636Z,4.10
2018-03-16T21:47:16.009Z,4.00
2018-03-16T21:49:43.728Z,3.27
2018-03-16T21:52:10.847Z,5.43
2018-03-16T21:54:37.386Z,3.70
2018-03-16T21:57:03.719Z,3.80
2018-03-16T21:59:30.170Z,3.97
2018-03-16T22:01:56.514Z,3.67
2018-03-16T22:04:22.883Z,3.47
2018-03-16T22:06:50.011Z,3.60
2018-03-16T22:09:17.095Z,4.53
2018-03-16T22:11:43.475Z,3.80
2018-03-16T22:14:10.635Z,4.47
2018-03-16T22:16:37.741Z,3.63
2018-03-16T22:19:04.148Z,3.37
2018-03-16T22:21:30.515Z,3.53
2018-03-16T22:23:56.870Z,3.95
2018-03-16T22:26:23.981Z,4.20
2018-03-16T22:28:50.330Z,3.60
2018-03-16T22:31:16.759Z,4.17
2018-03-16T22:33:43.831Z,3.63
2018-03-16T22:36:10.942Z,3.40
2018-03-16T22:38:37.314Z,3.50
2018-03-16T22:41:03.921Z,4.27
2018-03-16T22:43:30.242Z,5.07
2018-03-16T22:45:56.649Z,4.30
2018-03-16T22:48:22.995Z,4.30
2018-03-16T22:50:49.336Z,5.70
2018-03-16T22:53:15.714Z,3.27
2018-03-16T22:55:42.787Z,4.83
2018-03-16T22:58:09.900Z,3.40
2018-03-16T23:00:37.029Z,2.90
2018-03-16T23:03:03.428Z,3.93
2018-03-16T23:05:29.762Z,4.00
2018-03-16T23:07:56.137Z,3.17
2018-03-16T23:10:22.471Z,3.23
2018-03-16T23:12:48.810Z,3.63
2018-03-16T23:15:15.968Z,4.50
2018-03-16T23:17:42.294Z,4.10
2018-03-16T23:20:09.353Z,3.17
2018-03-16T23:22:36.481Z,4.07
2018-03-16T23:25:02.950Z,3.60
2018-03-16T23:27:29.302Z,4.10
2018-03-16T23:29:55.685Z,2.90
2018-03-16T23:32:22.782Z,3.83
2018-03-16T23:34:49.143Z,3.10
2018-03-16T23:37:15.496Z,5.80
2018-03-16T23:39:41.821Z,3.20
2018-03-16T23:42:08.144Z,3.83
2018-03-16T23:44:34.486Z,3.40
2018-03-16T23:47:01.575Z,3.40
2018-03-16T23:49:27.959Z,3.73
2018-03-16T23:51:54.279Z,3.27
2018-03-16T23:54:20.633Z,3.50
2018-03-16T23:56:47.717Z,3.83
2018-03-16T23:59:14.073Z,5.13
